METAR stanice u blizini

 

LYBE - Beograd / Surčin, Srbija
Ažurirano: 29/01/2020 12:30
Vedro
Vedro
 Pravac vetra JI
Vetar: JI 13 km/h
Temperatura: 9°C
Osećaj hladnoće: 7°C
Tačka rose: -1°C
Vlažnost: 50%
Pritisak: 1010 hPa
Pregled: Vedro
Vidljivost: greater than 10 km
2020/01/29 11:30 LYBE 291130Z 13007KT CAVOK 09/M01 Q1010 NOSIG
LYBT - Beograd / Batajnica, Srbija
Ažurirano: 29/01/2020 12:30
Vedro
Vedro
 Pravac vetra IJI
Vetar: IJI 11 km/h
Temperatura: 9°C
Osećaj hladnoće: 7°C
Tačka rose: 1°C
Vlažnost: 58%
Pritisak: 1010 hPa
Pregled: Vedro
Vidljivost: greater than 10 km
2020/01/29 11:30 LYBT 291130Z 11006KT 070V140 CAVOK 09/01 Q1010 NOSIG
LYVR - Vršac, Srbija
Ažurirano: 29/01/2020 12:30
Mostly Cloudy
Mostly Cloudy
 Pravac vetra SI
Vetar: SI 9 km/h
Temperatura: 6°C
Osećaj hladnoće: 4°C
Oblaci: Mostly Cloudy
Vidljivost: 10 km
Cloud details: Few Clouds 488 m
Mostly Cloudy 1006 m
2020/01/29 11:30 LYVR 291130Z 04005KT 360V060 9999 FEW016 BKN033 06/
 
LYKV - Lađevci, Srbija
Ažurirano: 29/01/2020 12:30
Vedro
Vedro
 Pravac vetra varies
Vetar: varies 4 km/h
Temperatura: 9°C
Tačka rose: 8°C
Vlažnost: 94%
Pritisak: 1011 hPa
Pregled: Vedro
Vidljivost: greater than 10 km
2020/01/29 11:30 LYKV 291130Z VRB02KT CAVOK 09/08 Q1011 NOSIG
LYNI - Niš, Srbija
Ažurirano: 29/01/2020 12:30
Partly Cloudy
Partly Cloudy
 Pravac vetra varies
Vetar: varies 4 km/h
Temperatura: 6°C
Tačka rose: 1°C
Vlažnost: 71%
Pritisak: 1012 hPa
Oblaci: Partly Cloudy
Vidljivost: 10 km
Cloud details: Few Clouds 396 m
Partly Cloudy 610 m
2020/01/29 11:30 LYNI 291130Z VRB02KT 9999 FEW013 SCT020 06/01 Q1012 NOSIG
BKPR - Priština, Srbija
Ažurirano: 29/01/2020 12:30
Mostly Cloudy
Mostly Cloudy
 Pravac vetra JJI
Vetar: JJI 7 km/h
Temperatura: 6°C
Osećaj hladnoće: 4°C
Tačka rose: 1°C
Vlažnost: 71%
Pritisak: 1011 hPa
Oblaci: Mostly Cloudy
Vidljivost: 10 km
Cloud details: Partly Cloudy 914 m
Mostly Cloudy 2438 m
2020/01/29 11:30 BKPR 291130Z 15004KT 9999 SCT030 BKN080 06/01 Q1011 NOSIG RMK 17290095
 
LHPP - Pecs / Pogany, Hungary
Ažurirano: 29/01/2020 12:15
Vedro
Vedro
 Pravac vetra S
Vetar: S 9 km/h
Temperatura: 4°C
Osećaj hladnoće: 2°C
Tačka rose: 2°C
Vlažnost: 87%
Pritisak: 1008 hPa
Pregled: Vedro
Vidljivost: greater than 10 km
2020/01/29 11:15 LHPP 291115Z 35005KT CAVOK 04/02 Q1008
LHUD - Szeged, Hungary
Ažurirano: 04/07/2019 01:45
NOT Current
Vedro
Vedro
 Pravac vetra S
Vetar: S 7 km/h
Temperatura: 18°C
Tačka rose: 13°C
Vlažnost: 73%
Pritisak: 1019 hPa
Pregled: Vedro
Vidljivost: greater than 10 km
2019/07/03 23:45 LHUD 032345Z 35004KT CAVOK 18/13 Q1019
LRTR - Timisoara, Romania
Ažurirano: 29/01/2020 12:00
Mostly Cloudy
Mostly Cloudy
 Pravac vetra JZ
Vetar: JZ 6 km/h
Temperatura: 5°C
Tačka rose: 2°C
Vlažnost: 81%
Pritisak: 1011 hPa
Oblaci: Mostly Cloudy
Vidljivost: 10 km
Cloud details: Mostly Cloudy 274 m
2020/01/29 11:00 LRTR 291100Z 22003KT 170V270 9999 BKN009 05/02 Q1011 R11/19//95 NOSIG
 
LRCV - Craiova, Romania
Ažurirano: 29/01/2020 12:00
Vedro
Vedro
 Pravac vetra ZSZ
Vetar: ZSZ 35 km/h
Temperatura: 9°C
Osećaj hladnoće: 5°C
Tačka rose: 2°C
Vlažnost: 62%
Pritisak: 1007 hPa
Pregled: Vedro
Vidljivost: greater than 10 km
2020/01/29 11:00 LRCV 291100Z 29019KT CAVOK 09/02 Q1007 R27/19//95
LBSF - Sofia, Bulgaria
Ažurirano: 29/01/2020 12:30
Few Clouds
Few Clouds
 Pravac vetra SZ
Vetar: SZ 11 km/h
Temperatura: 6°C
Osećaj hladnoće: 4°C
Tačka rose: 2°C
Vlažnost: 76%
Pritisak: 1011 hPa
Oblaci: Few Clouds
Vidljivost: 10 km
Cloud details: Few Clouds 853 m
2020/01/29 11:30 LBSF 291130Z 31006KT 290V350 9999 FEW028 06/02 Q1011 R99/29//95 NOSIG
LWSK - Skoplje, Makedonija
Ažurirano: 29/01/2020 12:30
Slaba kiša, Pretežno oblačno
Slaba kiša, Pretežno oblačno
 Pravac vetra I
Vetar: I 4 km/h
Temperatura: 8°C
Tačka rose: 4°C
Vlažnost: 76%
Pritisak: 1012 hPa
Pregled: Light Rain
Oblaci: Mostly Cloudy
Vidljivost: 10 km
Cloud details: Few Clouds 457 m
Partly Cloudy 1006 m
Mostly Cloudy 2438 m
2020/01/29 11:30 LWSK 291130Z 09002KT 9999 -RA FEW015 SCT033 BKN080 08/04 Q1012 NOSIG
 
LYPG - Podgorica, Crna Gora
Ažurirano: 29/01/2020 12:30
Mostly Cloudy
Mostly Cloudy
 Pravac vetra varies
Vetar: varies 4 km/h
Temperatura: 13°C
Tačka rose: 9°C
Vlažnost: 77%
Pritisak: 1010 hPa
Oblaci: Mostly Cloudy
Vidljivost: 10 km
Cloud details: Partly Cloudy 914 m
Mostly Cloudy 2438 m
2020/01/29 11:30 LYPG 291130Z VRB02KT 9999 SCT030 BKN080 13/09 Q1010 NOSIG
LQSA - Sarajevo, Bosna i Hercegovina
Ažurirano: 29/01/2020 12:30
Partly Cloudy
Partly Cloudy
 Pravac vetra varies
Vetar: varies 4 km/h
Temperatura: 5°C
Tačka rose: 4°C
Vlažnost: 93%
Pritisak: 1009 hPa
Oblaci: Partly Cloudy
Vidljivost: 8 km
Cloud details: Few Clouds 457 m
Partly Cloudy 914 m
2020/01/29 11:30 LQSA 291130Z VRB02KT 8000 FEW015 SCT030 05/04 Q1009 NOSIG
LDOS - Osijek, Hrvatksa
Ažurirano: 29/01/2020 12:30
Vedro
Vedro
 Pravac vetra I
Vetar: I 6 km/h
Temperatura: 5°C
Tačka rose: 3°C
Vlažnost: 87%
Pritisak: 1009 hPa
Pregled: Vedro
Vidljivost: greater than 10 km
2020/01/29 11:30 LDOS 291130Z 08003KT 050V110 CAVOK 05/03 Q1009